<?xml version="1.0" encoding="UTF-8" standalone="no" ?>
<gpx xmlns="http://www.topografix.com/GPX/1/1" xmlns:xsi="http://www.w3.org/2001/XMLSchema-instance" xsi:schemaLocation="http://www.topografix.com/GPX/1/1 http://www.topografix.com/GPX/1/1/gpx.xsd" version="1.1" creator="VisuGPX - https://www.visugpx.com">
  <metadata>
    <name>83 - V - Roquebrune</name>
    <desc><![CDATA[Varaille Ermite Pétignon.
Nouvelle trace qui tient compte des propriétés privées en décembre 2025]]></desc>
  </metadata>
  <trk>
    <name><![CDATA[12 déc. 2025]]></name>
    <desc><![CDATA[comment ...]]></desc>
    <extensions>
      <line xmlns="http://www.topografix.com/GPX/gpx_style/0/2">
        <color>0000FF</color>
        <width>4</width>
      </line>
    </extensions>
    <trkseg>
      <trkpt lat="43.44711" lon="6.57462">
        <ele>139</ele>
        <time>2025-12-12T13:06:19Z</time>
      </trkpt>
      <trkpt lat="43.44711" lon="6.57462">
        <ele>139</ele>
        <time>2025-12-12T13:06:21Z</time>
      </trkpt>
      <trkpt lat="43.44712" lon="6.57469">
        <ele>139</ele>
        <time>2025-12-12T13:07:05Z</time>
      </trkpt>
      <trkpt lat="43.4471" lon="6.57476">
        <ele>140</ele>
        <time>2025-12-12T13:07:11Z</time>
      </trkpt>
      <trkpt lat="43.44699" lon="6.57494">
        <ele>143</ele>
        <time>2025-12-12T13:07:31Z</time>
      </trkpt>
      <trkpt lat="43.44696" lon="6.57501">
        <ele>143</ele>
        <time>2025-12-12T13:07:37Z</time>
      </trkpt>
      <trkpt lat="43.44697" lon="6.57519">
        <ele>144</ele>
        <time>2025-12-12T13:07:47Z</time>
      </trkpt>
      <trkpt lat="43.44708" lon="6.57556">
        <ele>149</ele>
        <time>2025-12-12T13:08:19Z</time>
      </trkpt>
      <trkpt lat="43.4471" lon="6.57566">
        <ele>150</ele>
        <time>2025-12-12T13:08:27Z</time>
      </trkpt>
      <trkpt lat="43.44709" lon="6.57596">
        <ele>151</ele>
        <time>2025-12-12T13:08:49Z</time>
      </trkpt>
      <trkpt lat="43.44702" lon="6.57633">
        <ele>152</ele>
        <time>2025-12-12T13:09:17Z</time>
      </trkpt>
      <trkpt lat="43.44691" lon="6.57659">
        <ele>154</ele>
        <time>2025-12-12T13:09:39Z</time>
      </trkpt>
      <trkpt lat="43.44688" lon="6.57681">
        <ele>155</ele>
        <time>2025-12-12T13:09:55Z</time>
      </trkpt>
      <trkpt lat="43.44689" lon="6.57701">
        <ele>156</ele>
        <time>2025-12-12T13:10:09Z</time>
      </trkpt>
      <trkpt lat="43.4469" lon="6.57716">
        <ele>159</ele>
        <time>2025-12-12T13:10:19Z</time>
      </trkpt>
      <trkpt lat="43.4469" lon="6.5773">
        <ele>160</ele>
        <time>2025-12-12T13:10:31Z</time>
      </trkpt>
      <trkpt lat="43.4469" lon="6.57742">
        <ele>161</ele>
        <time>2025-12-12T13:10:41Z</time>
      </trkpt>
      <trkpt lat="43.44691" lon="6.57754">
        <ele>161</ele>
        <time>2025-12-12T13:10:51Z</time>
      </trkpt>
      <trkpt lat="43.44693" lon="6.57803">
        <ele>161</ele>
        <time>2025-12-12T13:11:29Z</time>
      </trkpt>
      <trkpt lat="43.44694" lon="6.5781">
        <ele>162</ele>
        <time>2025-12-12T13:11:35Z</time>
      </trkpt>
      <trkpt lat="43.44694" lon="6.57817">
        <ele>163</ele>
        <time>2025-12-12T13:11:41Z</time>
      </trkpt>
      <trkpt lat="43.44699" lon="6.57815">
        <ele>163</ele>
        <time>2025-12-12T13:12:09Z</time>
      </trkpt>
      <trkpt lat="43.44716" lon="6.57821">
        <ele>165</ele>
        <time>2025-12-12T13:12:35Z</time>
      </trkpt>
      <trkpt lat="43.44727" lon="6.57836">
        <ele>169</ele>
        <time>2025-12-12T13:12:55Z</time>
      </trkpt>
      <trkpt lat="43.44741" lon="6.57867">
        <ele>175</ele>
        <time>2025-12-12T13:13:25Z</time>
      </trkpt>
      <trkpt lat="43.44765" lon="6.5789">
        <ele>178</ele>
        <time>2025-12-12T13:13:57Z</time>
      </trkpt>
      <trkpt lat="43.44773" lon="6.57895">
        <ele>179</ele>
        <time>2025-12-12T13:14:07Z</time>
      </trkpt>
      <trkpt lat="43.44794" lon="6.57897">
        <ele>180</ele>
        <time>2025-12-12T13:14:33Z</time>
      </trkpt>
      <trkpt lat="43.44806" lon="6.57894">
        <ele>180</ele>
        <time>2025-12-12T13:14:47Z</time>
      </trkpt>
      <trkpt lat="43.4482" lon="6.57898">
        <ele>181</ele>
        <time>2025-12-12T13:15:03Z</time>
      </trkpt>
      <trkpt lat="43.44844" lon="6.57917">
        <ele>183</ele>
        <time>2025-12-12T13:15:35Z</time>
      </trkpt>
      <trkpt lat="43.44857" lon="6.57933">
        <ele>186</ele>
        <time>2025-12-12T13:15:53Z</time>
      </trkpt>
      <trkpt lat="43.44867" lon="6.57947">
        <ele>189</ele>
        <time>2025-12-12T13:16:09Z</time>
      </trkpt>
      <trkpt lat="43.44868" lon="6.57956">
        <ele>192</ele>
        <time>2025-12-12T13:16:15Z</time>
      </trkpt>
      <trkpt lat="43.44867" lon="6.57962">
        <ele>192</ele>
        <time>2025-12-12T13:16:19Z</time>
      </trkpt>
      <trkpt lat="43.44863" lon="6.57968">
        <ele>192</ele>
        <time>2025-12-12T13:16:25Z</time>
      </trkpt>
      <trkpt lat="43.44852" lon="6.5797">
        <ele>193</ele>
        <time>2025-12-12T13:16:35Z</time>
      </trkpt>
      <trkpt lat="43.44841" lon="6.57973">
        <ele>195</ele>
        <time>2025-12-12T13:16:47Z</time>
      </trkpt>
      <trkpt lat="43.44823" lon="6.5797">
        <ele>196</ele>
        <time>2025-12-12T13:17:05Z</time>
      </trkpt>
      <trkpt lat="43.44824" lon="6.57967">
        <ele>192</ele>
        <time>2025-12-12T13:17:47Z</time>
      </trkpt>
      <trkpt lat="43.44859" lon="6.57985">
        <ele>198</ele>
        <time>2025-12-12T13:18:19Z</time>
      </trkpt>
      <trkpt lat="43.44876" lon="6.57988">
        <ele>198</ele>
        <time>2025-12-12T13:18:35Z</time>
      </trkpt>
      <trkpt lat="43.44882" lon="6.57985">
        <ele>198</ele>
        <time>2025-12-12T13:18:41Z</time>
      </trkpt>
      <trkpt lat="43.44886" lon="6.57988">
        <ele>198</ele>
        <time>2025-12-12T13:19:17Z</time>
      </trkpt>
      <trkpt lat="43.44898" lon="6.5799">
        <ele>199</ele>
        <time>2025-12-12T13:20:01Z</time>
      </trkpt>
      <trkpt lat="43.44902" lon="6.57992">
        <ele>199</ele>
        <time>2025-12-12T13:20:09Z</time>
      </trkpt>
      <trkpt lat="43.44906" lon="6.57993">
        <ele>199</ele>
        <time>2025-12-12T13:20:37Z</time>
      </trkpt>
      <trkpt lat="43.44917" lon="6.57994">
        <ele>199</ele>
        <time>2025-12-12T13:21:03Z</time>
      </trkpt>
      <trkpt lat="43.44922" lon="6.57996">
        <ele>198</ele>
        <time>2025-12-12T13:21:07Z</time>
      </trkpt>
      <trkpt lat="43.44928" lon="6.57998">
        <ele>197</ele>
        <time>2025-12-12T13:21:21Z</time>
      </trkpt>
      <trkpt lat="43.44934" lon="6.57994">
        <ele>196</ele>
        <time>2025-12-12T13:21:27Z</time>
      </trkpt>
      <trkpt lat="43.44968" lon="6.57963">
        <ele>195</ele>
        <time>2025-12-12T13:21:57Z</time>
      </trkpt>
      <trkpt lat="43.44974" lon="6.57961">
        <ele>194</ele>
        <time>2025-12-12T13:22:03Z</time>
      </trkpt>
      <trkpt lat="43.44985" lon="6.57969">
        <ele>193</ele>
        <time>2025-12-12T13:22:15Z</time>
      </trkpt>
      <trkpt lat="43.44988" lon="6.57977">
        <ele>193</ele>
        <time>2025-12-12T13:22:23Z</time>
      </trkpt>
      <trkpt lat="43.44989" lon="6.57986">
        <ele>193</ele>
        <time>2025-12-12T13:22:29Z</time>
      </trkpt>
      <trkpt lat="43.44997" lon="6.58003">
        <ele>191</ele>
        <time>2025-12-12T13:22:43Z</time>
      </trkpt>
      <trkpt lat="43.45002" lon="6.58007">
        <ele>190</ele>
        <time>2025-12-12T13:22:49Z</time>
      </trkpt>
      <trkpt lat="43.45016" lon="6.58009">
        <ele>189</ele>
        <time>2025-12-12T13:23:03Z</time>
      </trkpt>
      <trkpt lat="43.45025" lon="6.58015">
        <ele>189</ele>
        <time>2025-12-12T13:23:13Z</time>
      </trkpt>
      <trkpt lat="43.45041" lon="6.58018">
        <ele>189</ele>
        <time>2025-12-12T13:23:31Z</time>
      </trkpt>
      <trkpt lat="43.45056" lon="6.58026">
        <ele>190</ele>
        <time>2025-12-12T13:23:55Z</time>
      </trkpt>
      <trkpt lat="43.45066" lon="6.58028">
        <ele>191</ele>
        <time>2025-12-12T13:24:07Z</time>
      </trkpt>
      <trkpt lat="43.45074" lon="6.58025">
        <ele>194</ele>
        <time>2025-12-12T13:24:15Z</time>
      </trkpt>
      <trkpt lat="43.45081" lon="6.58025">
        <ele>195</ele>
        <time>2025-12-12T13:24:21Z</time>
      </trkpt>
      <trkpt lat="43.45089" lon="6.58027">
        <ele>195</ele>
        <time>2025-12-12T13:24:31Z</time>
      </trkpt>
      <trkpt lat="43.45096" lon="6.58033">
        <ele>195</ele>
        <time>2025-12-12T13:24:41Z</time>
      </trkpt>
      <trkpt lat="43.45105" lon="6.58051">
        <ele>193</ele>
        <time>2025-12-12T13:24:57Z</time>
      </trkpt>
      <trkpt lat="43.45109" lon="6.5806">
        <ele>193</ele>
        <time>2025-12-12T13:25:05Z</time>
      </trkpt>
      <trkpt lat="43.45134" lon="6.58074">
        <ele>197</ele>
        <time>2025-12-12T13:25:35Z</time>
      </trkpt>
      <trkpt lat="43.45145" lon="6.58082">
        <ele>199</ele>
        <time>2025-12-12T13:25:49Z</time>
      </trkpt>
      <trkpt lat="43.45157" lon="6.58089">
        <ele>202</ele>
        <time>2025-12-12T13:26:05Z</time>
      </trkpt>
      <trkpt lat="43.45176" lon="6.58114">
        <ele>206</ele>
        <time>2025-12-12T13:26:41Z</time>
      </trkpt>
      <trkpt lat="43.4518" lon="6.58113">
        <ele>206</ele>
        <time>2025-12-12T13:26:53Z</time>
      </trkpt>
      <trkpt lat="43.45185" lon="6.58109">
        <ele>207</ele>
        <time>2025-12-12T13:26:59Z</time>
      </trkpt>
      <trkpt lat="43.45189" lon="6.58102">
        <ele>207</ele>
        <time>2025-12-12T13:27:09Z</time>
      </trkpt>
      <trkpt lat="43.45193" lon="6.58106">
        <ele>208</ele>
        <time>2025-12-12T13:27:17Z</time>
      </trkpt>
      <trkpt lat="43.45189" lon="6.58109">
        <ele>208</ele>
        <time>2025-12-12T13:27:39Z</time>
      </trkpt>
      <trkpt lat="43.45186" lon="6.58114">
        <ele>208</ele>
        <time>2025-12-12T13:27:47Z</time>
      </trkpt>
      <trkpt lat="43.45184" lon="6.5812">
        <ele>208</ele>
        <time>2025-12-12T13:27:57Z</time>
      </trkpt>
      <trkpt lat="43.4519" lon="6.58123">
        <ele>208</ele>
        <time>2025-12-12T13:28:13Z</time>
      </trkpt>
      <trkpt lat="43.45197" lon="6.5812">
        <ele>208</ele>
        <time>2025-12-12T13:28:39Z</time>
      </trkpt>
      <trkpt lat="43.45201" lon="6.58122">
        <ele>208</ele>
        <time>2025-12-12T13:28:51Z</time>
      </trkpt>
      <trkpt lat="43.45205" lon="6.58112">
        <ele>209</ele>
        <time>2025-12-12T13:29:07Z</time>
      </trkpt>
      <trkpt lat="43.45207" lon="6.58113">
        <ele>210</ele>
        <time>2025-12-12T13:32:59Z</time>
      </trkpt>
      <trkpt lat="43.45206" lon="6.5812">
        <ele>210</ele>
        <time>2025-12-12T13:33:11Z</time>
      </trkpt>
      <trkpt lat="43.45207" lon="6.58127">
        <ele>210</ele>
        <time>2025-12-12T13:33:17Z</time>
      </trkpt>
      <trkpt lat="43.45209" lon="6.58133">
        <ele>208</ele>
        <time>2025-12-12T13:33:23Z</time>
      </trkpt>
      <trkpt lat="43.45214" lon="6.58137">
        <ele>208</ele>
        <time>2025-12-12T13:33:37Z</time>
      </trkpt>
      <trkpt lat="43.4521" lon="6.5814">
        <ele>208</ele>
        <time>2025-12-12T13:34:03Z</time>
      </trkpt>
      <trkpt lat="43.45214" lon="6.58144">
        <ele>209</ele>
        <time>2025-12-12T13:34:23Z</time>
      </trkpt>
      <trkpt lat="43.45218" lon="6.58141">
        <ele>209</ele>
        <time>2025-12-12T13:34:43Z</time>
      </trkpt>
      <trkpt lat="43.45219" lon="6.58131">
        <ele>209</ele>
        <time>2025-12-12T13:35:07Z</time>
      </trkpt>
      <trkpt lat="43.45231" lon="6.58131">
        <ele>209</ele>
        <time>2025-12-12T13:36:03Z</time>
      </trkpt>
      <trkpt lat="43.45234" lon="6.58135">
        <ele>216</ele>
        <time>2025-12-12T13:36:07Z</time>
      </trkpt>
      <trkpt lat="43.45245" lon="6.5814">
        <ele>218</ele>
        <time>2025-12-12T13:36:17Z</time>
      </trkpt>
      <trkpt lat="43.4525" lon="6.58153">
        <ele>219</ele>
        <time>2025-12-12T13:36:41Z</time>
      </trkpt>
      <trkpt lat="43.45254" lon="6.58164">
        <ele>220</ele>
        <time>2025-12-12T13:36:47Z</time>
      </trkpt>
      <trkpt lat="43.45256" lon="6.58187">
        <ele>221</ele>
        <time>2025-12-12T13:37:05Z</time>
      </trkpt>
      <trkpt lat="43.45257" lon="6.58194">
        <ele>221</ele>
        <time>2025-12-12T13:37:15Z</time>
      </trkpt>
      <trkpt lat="43.45256" lon="6.5823">
        <ele>219</ele>
        <time>2025-12-12T13:37:47Z</time>
      </trkpt>
      <trkpt lat="43.45253" lon="6.58243">
        <ele>220</ele>
        <time>2025-12-12T13:37:59Z</time>
      </trkpt>
      <trkpt lat="43.45252" lon="6.58251">
        <ele>220</ele>
        <time>2025-12-12T13:38:03Z</time>
      </trkpt>
      <trkpt lat="43.45253" lon="6.58292">
        <ele>219</ele>
        <time>2025-12-12T13:38:35Z</time>
      </trkpt>
      <trkpt lat="43.45256" lon="6.58312">
        <ele>219</ele>
        <time>2025-12-12T13:38:51Z</time>
      </trkpt>
      <trkpt lat="43.4526" lon="6.58332">
        <ele>220</ele>
        <time>2025-12-12T13:39:05Z</time>
      </trkpt>
      <trkpt lat="43.45259" lon="6.58353">
        <ele>223</ele>
        <time>2025-12-12T13:39:19Z</time>
      </trkpt>
      <trkpt lat="43.45259" lon="6.58373">
        <ele>224</ele>
        <time>2025-12-12T13:39:31Z</time>
      </trkpt>
      <trkpt lat="43.45232" lon="6.58425">
        <ele>221</ele>
        <time>2025-12-12T13:40:03Z</time>
      </trkpt>
      <trkpt lat="43.45215" lon="6.58451">
        <ele>222</ele>
        <time>2025-12-12T13:40:33Z</time>
      </trkpt>
      <trkpt lat="43.45205" lon="6.58463">
        <ele>224</ele>
        <time>2025-12-12T13:40:57Z</time>
      </trkpt>
      <trkpt lat="43.45191" lon="6.58464">
        <ele>224</ele>
        <time>2025-12-12T13:41:17Z</time>
      </trkpt>
      <trkpt lat="43.45181" lon="6.58474">
        <ele>224</ele>
        <time>2025-12-12T13:41:29Z</time>
      </trkpt>
      <trkpt lat="43.45174" lon="6.58481">
        <ele>224</ele>
        <time>2025-12-12T13:41:39Z</time>
      </trkpt>
      <trkpt lat="43.45156" lon="6.58519">
        <ele>223</ele>
        <time>2025-12-12T13:42:15Z</time>
      </trkpt>
      <trkpt lat="43.45151" lon="6.58533">
        <ele>222</ele>
        <time>2025-12-12T13:42:25Z</time>
      </trkpt>
      <trkpt lat="43.45149" lon="6.58554">
        <ele>221</ele>
        <time>2025-12-12T13:42:39Z</time>
      </trkpt>
      <trkpt lat="43.45154" lon="6.58588">
        <ele>220</ele>
        <time>2025-12-12T13:43:05Z</time>
      </trkpt>
      <trkpt lat="43.45153" lon="6.58625">
        <ele>221</ele>
        <time>2025-12-12T13:43:35Z</time>
      </trkpt>
      <trkpt lat="43.45143" lon="6.58637">
        <ele>221</ele>
        <time>2025-12-12T13:43:53Z</time>
      </trkpt>
      <trkpt lat="43.45138" lon="6.58658">
        <ele>223</ele>
        <time>2025-12-12T13:44:17Z</time>
      </trkpt>
      <trkpt lat="43.45121" lon="6.58684">
        <ele>229</ele>
        <time>2025-12-12T13:44:49Z</time>
      </trkpt>
      <trkpt lat="43.45096" lon="6.58712">
        <ele>229</ele>
        <time>2025-12-12T13:45:21Z</time>
      </trkpt>
      <trkpt lat="43.45088" lon="6.5873">
        <ele>228</ele>
        <time>2025-12-12T13:45:37Z</time>
      </trkpt>
      <trkpt lat="43.45067" lon="6.58761">
        <ele>224</ele>
        <time>2025-12-12T13:46:11Z</time>
      </trkpt>
      <trkpt lat="43.45045" lon="6.58791">
        <ele>223</ele>
        <time>2025-12-12T13:46:57Z</time>
      </trkpt>
      <trkpt lat="43.45036" lon="6.58803">
        <ele>223</ele>
        <time>2025-12-12T13:47:15Z</time>
      </trkpt>
      <trkpt lat="43.45023" lon="6.5881">
        <ele>222</ele>
        <time>2025-12-12T13:47:27Z</time>
      </trkpt>
      <trkpt lat="43.45014" lon="6.58816">
        <ele>219</ele>
        <time>2025-12-12T13:47:35Z</time>
      </trkpt>
      <trkpt lat="43.44986" lon="6.58849">
        <ele>217</ele>
        <time>2025-12-12T13:48:15Z</time>
      </trkpt>
      <trkpt lat="43.44975" lon="6.5886">
        <ele>217</ele>
        <time>2025-12-12T13:48:43Z</time>
      </trkpt>
      <trkpt lat="43.44964" lon="6.58871">
        <ele>217</ele>
        <time>2025-12-12T13:48:59Z</time>
      </trkpt>
      <trkpt lat="43.44961" lon="6.58881">
        <ele>216</ele>
        <time>2025-12-12T13:49:15Z</time>
      </trkpt>
      <trkpt lat="43.44957" lon="6.58885">
        <ele>215</ele>
        <time>2025-12-12T13:49:31Z</time>
      </trkpt>
      <trkpt lat="43.4495" lon="6.58881">
        <ele>213</ele>
        <time>2025-12-12T13:49:49Z</time>
      </trkpt>
      <trkpt lat="43.44943" lon="6.58885">
        <ele>209</ele>
        <time>2025-12-12T13:50:01Z</time>
      </trkpt>
      <trkpt lat="43.4494" lon="6.58889">
        <ele>209</ele>
        <time>2025-12-12T13:50:07Z</time>
      </trkpt>
      <trkpt lat="43.44934" lon="6.58904">
        <ele>210</ele>
        <time>2025-12-12T13:50:19Z</time>
      </trkpt>
      <trkpt lat="43.44931" lon="6.5892">
        <ele>212</ele>
        <time>2025-12-12T13:50:31Z</time>
      </trkpt>
      <trkpt lat="43.44922" lon="6.58948">
        <ele>214</ele>
        <time>2025-12-12T13:50:53Z</time>
      </trkpt>
      <trkpt lat="43.44916" lon="6.58966">
        <ele>214</ele>
        <time>2025-12-12T13:51:07Z</time>
      </trkpt>
      <trkpt lat="43.44911" lon="6.58979">
        <ele>214</ele>
        <time>2025-12-12T13:51:19Z</time>
      </trkpt>
      <trkpt lat="43.44907" lon="6.59001">
        <ele>213</ele>
        <time>2025-12-12T13:51:47Z</time>
      </trkpt>
      <trkpt lat="43.44911" lon="6.59007">
        <ele>213</ele>
        <time>2025-12-12T13:51:57Z</time>
      </trkpt>
      <trkpt lat="43.44907" lon="6.59024">
        <ele>214</ele>
        <time>2025-12-12T13:52:15Z</time>
      </trkpt>
      <trkpt lat="43.44906" lon="6.59039">
        <ele>217</ele>
        <time>2025-12-12T13:52:27Z</time>
      </trkpt>
      <trkpt lat="43.44903" lon="6.59046">
        <ele>217</ele>
        <time>2025-12-12T13:52:33Z</time>
      </trkpt>
      <trkpt lat="43.44898" lon="6.59059">
        <ele>218</ele>
        <time>2025-12-12T13:52:49Z</time>
      </trkpt>
      <trkpt lat="43.44894" lon="6.59069">
        <ele>219</ele>
        <time>2025-12-12T13:53:01Z</time>
      </trkpt>
      <trkpt lat="43.4489" lon="6.59077">
        <ele>220</ele>
        <time>2025-12-12T13:53:09Z</time>
      </trkpt>
      <trkpt lat="43.44889" lon="6.59084">
        <ele>219</ele>
        <time>2025-12-12T13:53:21Z</time>
      </trkpt>
      <trkpt lat="43.44888" lon="6.59091">
        <ele>219</ele>
        <time>2025-12-12T13:53:37Z</time>
      </trkpt>
      <trkpt lat="43.44888" lon="6.59098">
        <ele>219</ele>
        <time>2025-12-12T13:53:45Z</time>
      </trkpt>
      <trkpt lat="43.44877" lon="6.59113">
        <ele>219</ele>
        <time>2025-12-12T13:54:15Z</time>
      </trkpt>
      <trkpt lat="43.44861" lon="6.59149">
        <ele>220</ele>
        <time>2025-12-12T13:56:45Z</time>
      </trkpt>
      <trkpt lat="43.44853" lon="6.59175">
        <ele>221</ele>
        <time>2025-12-12T13:57:05Z</time>
      </trkpt>
      <trkpt lat="43.44854" lon="6.59182">
        <ele>220</ele>
        <time>2025-12-12T13:57:11Z</time>
      </trkpt>
      <trkpt lat="43.4484" lon="6.59226">
        <ele>223</ele>
        <time>2025-12-12T13:57:45Z</time>
      </trkpt>
      <trkpt lat="43.44824" lon="6.59256">
        <ele>225</ele>
        <time>2025-12-12T13:58:17Z</time>
      </trkpt>
      <trkpt lat="43.44816" lon="6.59281">
        <ele>230</ele>
        <time>2025-12-12T13:58:41Z</time>
      </trkpt>
      <trkpt lat="43.44813" lon="6.59291">
        <ele>231</ele>
        <time>2025-12-12T13:58:53Z</time>
      </trkpt>
      <trkpt lat="43.44811" lon="6.59298">
        <ele>230</ele>
        <time>2025-12-12T13:59:05Z</time>
      </trkpt>
      <trkpt lat="43.44806" lon="6.59313">
        <ele>229</ele>
        <time>2025-12-12T13:59:21Z</time>
      </trkpt>
      <trkpt lat="43.44792" lon="6.59333">
        <ele>231</ele>
        <time>2025-12-12T13:59:39Z</time>
      </trkpt>
      <trkpt lat="43.44787" lon="6.5936">
        <ele>234</ele>
        <time>2025-12-12T14:00:07Z</time>
      </trkpt>
      <trkpt lat="43.4479" lon="6.59385">
        <ele>236</ele>
        <time>2025-12-12T14:00:25Z</time>
      </trkpt>
      <trkpt lat="43.44803" lon="6.59401">
        <ele>241</ele>
        <time>2025-12-12T14:00:47Z</time>
      </trkpt>
      <trkpt lat="43.44811" lon="6.59406">
        <ele>246</ele>
        <time>2025-12-12T14:00:59Z</time>
      </trkpt>
      <trkpt lat="43.44812" lon="6.59414">
        <ele>248</ele>
        <time>2025-12-12T14:01:31Z</time>
      </trkpt>
      <trkpt lat="43.44814" lon="6.59419">
        <ele>247</ele>
        <time>2025-12-12T14:01:57Z</time>
      </trkpt>
      <trkpt lat="43.44814" lon="6.5943">
        <ele>245</ele>
        <time>2025-12-12T14:05:29Z</time>
      </trkpt>
      <trkpt lat="43.44821" lon="6.59415">
        <ele>245</ele>
        <time>2025-12-12T14:07:07Z</time>
      </trkpt>
      <trkpt lat="43.44835" lon="6.59394">
        <ele>245</ele>
        <time>2025-12-12T14:07:33Z</time>
      </trkpt>
      <trkpt lat="43.44852" lon="6.59381">
        <ele>241</ele>
        <time>2025-12-12T14:07:57Z</time>
      </trkpt>
      <trkpt lat="43.4486" lon="6.59381">
        <ele>241</ele>
        <time>2025-12-12T14:08:05Z</time>
      </trkpt>
      <trkpt lat="43.44871" lon="6.59372">
        <ele>239</ele>
        <time>2025-12-12T14:08:25Z</time>
      </trkpt>
      <trkpt lat="43.44885" lon="6.5935">
        <ele>242</ele>
        <time>2025-12-12T14:09:01Z</time>
      </trkpt>
      <trkpt lat="43.44911" lon="6.59316">
        <ele>238</ele>
        <time>2025-12-12T14:09:53Z</time>
      </trkpt>
      <trkpt lat="43.44932" lon="6.59307">
        <ele>236</ele>
        <time>2025-12-12T14:10:29Z</time>
      </trkpt>
      <trkpt lat="43.44938" lon="6.59306">
        <ele>242</ele>
        <time>2025-12-12T14:10:39Z</time>
      </trkpt>
      <trkpt lat="43.44947" lon="6.59306">
        <ele>246</ele>
        <time>2025-12-12T14:10:55Z</time>
      </trkpt>
      <trkpt lat="43.44965" lon="6.59325">
        <ele>248</ele>
        <time>2025-12-12T14:11:33Z</time>
      </trkpt>
      <trkpt lat="43.44968" lon="6.59335">
        <ele>242</ele>
        <time>2025-12-12T14:11:43Z</time>
      </trkpt>
      <trkpt lat="43.44972" lon="6.59343">
        <ele>239</ele>
        <time>2025-12-12T14:14:43Z</time>
      </trkpt>
      <trkpt lat="43.44986" lon="6.59338">
        <ele>243</ele>
        <time>2025-12-12T14:15:31Z</time>
      </trkpt>
      <trkpt lat="43.44997" lon="6.59347">
        <ele>249</ele>
        <time>2025-12-12T14:16:03Z</time>
      </trkpt>
      <trkpt lat="43.45001" lon="6.59351">
        <ele>249</ele>
        <time>2025-12-12T14:16:11Z</time>
      </trkpt>
      <trkpt lat="43.45006" lon="6.59352">
        <ele>251</ele>
        <time>2025-12-12T14:16:45Z</time>
      </trkpt>
      <trkpt lat="43.4502" lon="6.59354">
        <ele>252</ele>
        <time>2025-12-12T14:17:07Z</time>
      </trkpt>
      <trkpt lat="43.45024" lon="6.59355">
        <ele>251</ele>
        <time>2025-12-12T14:17:25Z</time>
      </trkpt>
      <trkpt lat="43.45028" lon="6.5935">
        <ele>260</ele>
        <time>2025-12-12T14:17:47Z</time>
      </trkpt>
      <trkpt lat="43.45033" lon="6.59349">
        <ele>265</ele>
        <time>2025-12-12T14:17:57Z</time>
      </trkpt>
      <trkpt lat="43.4504" lon="6.5935">
        <ele>267</ele>
        <time>2025-12-12T14:18:11Z</time>
      </trkpt>
      <trkpt lat="43.45047" lon="6.59351">
        <ele>269</ele>
        <time>2025-12-12T14:18:25Z</time>
      </trkpt>
      <trkpt lat="43.45065" lon="6.59348">
        <ele>275</ele>
        <time>2025-12-12T14:19:13Z</time>
      </trkpt>
      <trkpt lat="43.45083" lon="6.59355">
        <ele>283</ele>
        <time>2025-12-12T14:19:41Z</time>
      </trkpt>
      <trkpt lat="43.45103" lon="6.59352">
        <ele>285</ele>
        <time>2025-12-12T14:20:01Z</time>
      </trkpt>
      <trkpt lat="43.45119" lon="6.59367">
        <ele>286</ele>
        <time>2025-12-12T14:20:25Z</time>
      </trkpt>
      <trkpt lat="43.45123" lon="6.59371">
        <ele>287</ele>
        <time>2025-12-12T14:20:35Z</time>
      </trkpt>
      <trkpt lat="43.45149" lon="6.59363">
        <ele>291</ele>
        <time>2025-12-12T14:21:11Z</time>
      </trkpt>
      <trkpt lat="43.45154" lon="6.59359">
        <ele>291</ele>
        <time>2025-12-12T14:21:23Z</time>
      </trkpt>
      <trkpt lat="43.45178" lon="6.59366">
        <ele>291</ele>
        <time>2025-12-12T14:21:53Z</time>
      </trkpt>
      <trkpt lat="43.45203" lon="6.59375">
        <ele>291</ele>
        <time>2025-12-12T14:22:25Z</time>
      </trkpt>
      <trkpt lat="43.45228" lon="6.59382">
        <ele>295</ele>
        <time>2025-12-12T14:22:59Z</time>
      </trkpt>
      <trkpt lat="43.45279" lon="6.59387">
        <ele>294</ele>
        <time>2025-12-12T14:23:53Z</time>
      </trkpt>
      <trkpt lat="43.45292" lon="6.59394">
        <ele>291</ele>
        <time>2025-12-12T14:24:11Z</time>
      </trkpt>
      <trkpt lat="43.45323" lon="6.59403">
        <ele>290</ele>
        <time>2025-12-12T14:24:53Z</time>
      </trkpt>
      <trkpt lat="43.45325" lon="6.59396">
        <ele>269</ele>
        <time>2025-12-12T14:25:39Z</time>
      </trkpt>
      <trkpt lat="43.45363" lon="6.59403">
        <ele>270</ele>
        <time>2025-12-12T14:26:55Z</time>
      </trkpt>
      <trkpt lat="43.45376" lon="6.59408">
        <ele>281</ele>
        <time>2025-12-12T14:27:23Z</time>
      </trkpt>
      <trkpt lat="43.45374" lon="6.59407">
        <ele>271</ele>
        <time>2025-12-12T14:32:57Z</time>
      </trkpt>
      <trkpt lat="43.45369" lon="6.59406">
        <ele>270</ele>
        <time>2025-12-12T14:33:43Z</time>
      </trkpt>
      <trkpt lat="43.45364" lon="6.59408">
        <ele>270</ele>
        <time>2025-12-12T14:34:23Z</time>
      </trkpt>
      <trkpt lat="43.45351" lon="6.59413">
        <ele>270</ele>
        <time>2025-12-12T14:34:51Z</time>
      </trkpt>
      <trkpt lat="43.45347" lon="6.59411">
        <ele>270</ele>
        <time>2025-12-12T14:35:33Z</time>
      </trkpt>
      <trkpt lat="43.45341" lon="6.59409">
        <ele>269</ele>
        <time>2025-12-12T14:36:39Z</time>
      </trkpt>
      <trkpt lat="43.45329" lon="6.59408">
        <ele>269</ele>
        <time>2025-12-12T14:37:25Z</time>
      </trkpt>
      <trkpt lat="43.45325" lon="6.59412">
        <ele>270</ele>
        <time>2025-12-12T14:37:35Z</time>
      </trkpt>
      <trkpt lat="43.45323" lon="6.59421">
        <ele>269</ele>
        <time>2025-12-12T14:37:55Z</time>
      </trkpt>
      <trkpt lat="43.45316" lon="6.59423">
        <ele>269</ele>
        <time>2025-12-12T14:38:07Z</time>
      </trkpt>
      <trkpt lat="43.45299" lon="6.59417">
        <ele>277</ele>
        <time>2025-12-12T14:38:27Z</time>
      </trkpt>
      <trkpt lat="43.45289" lon="6.59408">
        <ele>279</ele>
        <time>2025-12-12T14:38:41Z</time>
      </trkpt>
      <trkpt lat="43.45286" lon="6.594">
        <ele>280</ele>
        <time>2025-12-12T14:38:55Z</time>
      </trkpt>
      <trkpt lat="43.45279" lon="6.594">
        <ele>281</ele>
        <time>2025-12-12T14:38:59Z</time>
      </trkpt>
      <trkpt lat="43.4526" lon="6.594">
        <ele>276</ele>
        <time>2025-12-12T14:39:11Z</time>
      </trkpt>
      <trkpt lat="43.45228" lon="6.59398">
        <ele>276</ele>
        <time>2025-12-12T14:39:47Z</time>
      </trkpt>
      <trkpt lat="43.45198" lon="6.59389">
        <ele>271</ele>
        <time>2025-12-12T14:40:27Z</time>
      </trkpt>
      <trkpt lat="43.45177" lon="6.59379">
        <ele>268</ele>
        <time>2025-12-12T14:40:57Z</time>
      </trkpt>
      <trkpt lat="43.4517" lon="6.59376">
        <ele>267</ele>
        <time>2025-12-12T14:41:05Z</time>
      </trkpt>
      <trkpt lat="43.45152" lon="6.59376">
        <ele>268</ele>
        <time>2025-12-12T14:41:29Z</time>
      </trkpt>
      <trkpt lat="43.45141" lon="6.59381">
        <ele>274</ele>
        <time>2025-12-12T14:41:49Z</time>
      </trkpt>
      <trkpt lat="43.45132" lon="6.59381">
        <ele>278</ele>
        <time>2025-12-12T14:42:09Z</time>
      </trkpt>
      <trkpt lat="43.45115" lon="6.59369">
        <ele>277</ele>
        <time>2025-12-12T14:42:29Z</time>
      </trkpt>
      <trkpt lat="43.4511" lon="6.59367">
        <ele>274</ele>
        <time>2025-12-12T14:42:37Z</time>
      </trkpt>
      <trkpt lat="43.45095" lon="6.59359">
        <ele>271</ele>
        <time>2025-12-12T14:43:03Z</time>
      </trkpt>
      <trkpt lat="43.45088" lon="6.59359">
        <ele>271</ele>
        <time>2025-12-12T14:43:09Z</time>
      </trkpt>
      <trkpt lat="43.45062" lon="6.59359">
        <ele>272</ele>
        <time>2025-12-12T14:43:45Z</time>
      </trkpt>
      <trkpt lat="43.45035" lon="6.59361">
        <ele>272</ele>
        <time>2025-12-12T14:44:27Z</time>
      </trkpt>
      <trkpt lat="43.4503" lon="6.59358">
        <ele>269</ele>
        <time>2025-12-12T14:45:03Z</time>
      </trkpt>
      <trkpt lat="43.45024" lon="6.59361">
        <ele>267</ele>
        <time>2025-12-12T14:45:31Z</time>
      </trkpt>
      <trkpt lat="43.4501" lon="6.59362">
        <ele>265</ele>
        <time>2025-12-12T14:45:55Z</time>
      </trkpt>
      <trkpt lat="43.44999" lon="6.59357">
        <ele>259</ele>
        <time>2025-12-12T14:46:11Z</time>
      </trkpt>
      <trkpt lat="43.44996" lon="6.5935">
        <ele>257</ele>
        <time>2025-12-12T14:46:27Z</time>
      </trkpt>
      <trkpt lat="43.44992" lon="6.59342">
        <ele>257</ele>
        <time>2025-12-12T14:46:45Z</time>
      </trkpt>
      <trkpt lat="43.44982" lon="6.59341">
        <ele>257</ele>
        <time>2025-12-12T14:47:07Z</time>
      </trkpt>
      <trkpt lat="43.44977" lon="6.59336">
        <ele>256</ele>
        <time>2025-12-12T14:47:19Z</time>
      </trkpt>
      <trkpt lat="43.44973" lon="6.59332">
        <ele>255</ele>
        <time>2025-12-12T14:47:31Z</time>
      </trkpt>
      <trkpt lat="43.44964" lon="6.5933">
        <ele>252</ele>
        <time>2025-12-12T14:48:09Z</time>
      </trkpt>
      <trkpt lat="43.44955" lon="6.59317">
        <ele>251</ele>
        <time>2025-12-12T14:48:23Z</time>
      </trkpt>
      <trkpt lat="43.4495" lon="6.59301">
        <ele>246</ele>
        <time>2025-12-12T14:48:45Z</time>
      </trkpt>
      <trkpt lat="43.44946" lon="6.59294">
        <ele>244</ele>
        <time>2025-12-12T14:49:27Z</time>
      </trkpt>
      <trkpt lat="43.44948" lon="6.59287">
        <ele>243</ele>
        <time>2025-12-12T14:49:51Z</time>
      </trkpt>
      <trkpt lat="43.44953" lon="6.59248">
        <ele>244</ele>
        <time>2025-12-12T14:50:21Z</time>
      </trkpt>
      <trkpt lat="43.44955" lon="6.59241">
        <ele>244</ele>
        <time>2025-12-12T14:50:29Z</time>
      </trkpt>
      <trkpt lat="43.44959" lon="6.59244">
        <ele>245</ele>
        <time>2025-12-12T14:55:21Z</time>
      </trkpt>
      <trkpt lat="43.44955" lon="6.59259">
        <ele>245</ele>
        <time>2025-12-12T14:55:37Z</time>
      </trkpt>
      <trkpt lat="43.44955" lon="6.59272">
        <ele>245</ele>
        <time>2025-12-12T14:55:45Z</time>
      </trkpt>
      <trkpt lat="43.44952" lon="6.59286">
        <ele>245</ele>
        <time>2025-12-12T14:55:57Z</time>
      </trkpt>
      <trkpt lat="43.44943" lon="6.59295">
        <ele>246</ele>
        <time>2025-12-12T14:56:13Z</time>
      </trkpt>
      <trkpt lat="43.44939" lon="6.59308">
        <ele>245</ele>
        <time>2025-12-12T14:56:25Z</time>
      </trkpt>
      <trkpt lat="43.44928" lon="6.59306">
        <ele>244</ele>
        <time>2025-12-12T14:56:47Z</time>
      </trkpt>
      <trkpt lat="43.44925" lon="6.59299">
        <ele>244</ele>
        <time>2025-12-12T14:57:05Z</time>
      </trkpt>
      <trkpt lat="43.4492" lon="6.59304">
        <ele>244</ele>
        <time>2025-12-12T14:57:13Z</time>
      </trkpt>
      <trkpt lat="43.44913" lon="6.59313">
        <ele>242</ele>
        <time>2025-12-12T14:57:23Z</time>
      </trkpt>
      <trkpt lat="43.44909" lon="6.59316">
        <ele>241</ele>
        <time>2025-12-12T14:58:23Z</time>
      </trkpt>
      <trkpt lat="43.449" lon="6.59329">
        <ele>241</ele>
        <time>2025-12-12T14:58:35Z</time>
      </trkpt>
      <trkpt lat="43.4489" lon="6.59336">
        <ele>241</ele>
        <time>2025-12-12T14:58:43Z</time>
      </trkpt>
      <trkpt lat="43.44881" lon="6.59346">
        <ele>241</ele>
        <time>2025-12-12T14:58:53Z</time>
      </trkpt>
      <trkpt lat="43.44875" lon="6.5936">
        <ele>238</ele>
        <time>2025-12-12T14:59:03Z</time>
      </trkpt>
      <trkpt lat="43.44868" lon="6.59368">
        <ele>237</ele>
        <time>2025-12-12T14:59:15Z</time>
      </trkpt>
      <trkpt lat="43.44859" lon="6.59379">
        <ele>237</ele>
        <time>2025-12-12T14:59:33Z</time>
      </trkpt>
      <trkpt lat="43.44848" lon="6.59383">
        <ele>238</ele>
        <time>2025-12-12T14:59:55Z</time>
      </trkpt>
      <trkpt lat="43.44826" lon="6.59401">
        <ele>240</ele>
        <time>2025-12-12T15:00:17Z</time>
      </trkpt>
      <trkpt lat="43.4482" lon="6.59416">
        <ele>240</ele>
        <time>2025-12-12T15:00:29Z</time>
      </trkpt>
      <trkpt lat="43.44808" lon="6.59419">
        <ele>240</ele>
        <time>2025-12-12T15:00:47Z</time>
      </trkpt>
      <trkpt lat="43.44806" lon="6.59413">
        <ele>241</ele>
        <time>2025-12-12T15:01:11Z</time>
      </trkpt>
      <trkpt lat="43.44796" lon="6.59386">
        <ele>240</ele>
        <time>2025-12-12T15:01:37Z</time>
      </trkpt>
      <trkpt lat="43.4479" lon="6.59377">
        <ele>239</ele>
        <time>2025-12-12T15:01:45Z</time>
      </trkpt>
      <trkpt lat="43.4479" lon="6.59363">
        <ele>240</ele>
        <time>2025-12-12T15:02:13Z</time>
      </trkpt>
      <trkpt lat="43.44793" lon="6.5935">
        <ele>241</ele>
        <time>2025-12-12T15:02:23Z</time>
      </trkpt>
      <trkpt lat="43.44795" lon="6.59343">
        <ele>241</ele>
        <time>2025-12-12T15:02:31Z</time>
      </trkpt>
      <trkpt lat="43.44803" lon="6.5932">
        <ele>241</ele>
        <time>2025-12-12T15:02:55Z</time>
      </trkpt>
      <trkpt lat="43.44807" lon="6.59316">
        <ele>241</ele>
        <time>2025-12-12T15:03:25Z</time>
      </trkpt>
      <trkpt lat="43.44808" lon="6.59309">
        <ele>240</ele>
        <time>2025-12-12T15:03:41Z</time>
      </trkpt>
      <trkpt lat="43.44812" lon="6.59306">
        <ele>240</ele>
        <time>2025-12-12T15:03:51Z</time>
      </trkpt>
      <trkpt lat="43.44819" lon="6.59302">
        <ele>240</ele>
        <time>2025-12-12T15:04:01Z</time>
      </trkpt>
      <trkpt lat="43.44834" lon="6.59269">
        <ele>240</ele>
        <time>2025-12-12T15:04:33Z</time>
      </trkpt>
      <trkpt lat="43.44843" lon="6.59254">
        <ele>237</ele>
        <time>2025-12-12T15:04:45Z</time>
      </trkpt>
      <trkpt lat="43.44851" lon="6.59227">
        <ele>236</ele>
        <time>2025-12-12T15:05:03Z</time>
      </trkpt>
      <trkpt lat="43.44859" lon="6.59214">
        <ele>236</ele>
        <time>2025-12-12T15:05:15Z</time>
      </trkpt>
      <trkpt lat="43.44869" lon="6.59173">
        <ele>234</ele>
        <time>2025-12-12T15:05:49Z</time>
      </trkpt>
      <trkpt lat="43.44879" lon="6.59158">
        <ele>233</ele>
        <time>2025-12-12T15:05:59Z</time>
      </trkpt>
      <trkpt lat="43.44879" lon="6.5914">
        <ele>231</ele>
        <time>2025-12-12T15:06:09Z</time>
      </trkpt>
      <trkpt lat="43.44872" lon="6.59127">
        <ele>231</ele>
        <time>2025-12-12T15:06:25Z</time>
      </trkpt>
      <trkpt lat="43.44876" lon="6.59121">
        <ele>230</ele>
        <time>2025-12-12T15:06:37Z</time>
      </trkpt>
      <trkpt lat="43.44887" lon="6.59112">
        <ele>228</ele>
        <time>2025-12-12T15:07:03Z</time>
      </trkpt>
      <trkpt lat="43.44886" lon="6.59107">
        <ele>227</ele>
        <time>2025-12-12T15:07:31Z</time>
      </trkpt>
      <trkpt lat="43.44892" lon="6.59103">
        <ele>227</ele>
        <time>2025-12-12T15:07:39Z</time>
      </trkpt>
      <trkpt lat="43.44888" lon="6.59099">
        <ele>227</ele>
        <time>2025-12-12T15:07:49Z</time>
      </trkpt>
      <trkpt lat="43.44884" lon="6.59081">
        <ele>226</ele>
        <time>2025-12-12T15:08:09Z</time>
      </trkpt>
      <trkpt lat="43.44891" lon="6.59066">
        <ele>224</ele>
        <time>2025-12-12T15:08:21Z</time>
      </trkpt>
      <trkpt lat="43.44895" lon="6.59053">
        <ele>224</ele>
        <time>2025-12-12T15:08:35Z</time>
      </trkpt>
      <trkpt lat="43.44899" lon="6.59042">
        <ele>223</ele>
        <time>2025-12-12T15:08:51Z</time>
      </trkpt>
      <trkpt lat="43.44905" lon="6.59017">
        <ele>218</ele>
        <time>2025-12-12T15:09:23Z</time>
      </trkpt>
      <trkpt lat="43.44907" lon="6.59007">
        <ele>219</ele>
        <time>2025-12-12T15:09:35Z</time>
      </trkpt>
      <trkpt lat="43.44916" lon="6.58967">
        <ele>219</ele>
        <time>2025-12-12T15:10:11Z</time>
      </trkpt>
      <trkpt lat="43.44923" lon="6.5895">
        <ele>216</ele>
        <time>2025-12-12T15:10:27Z</time>
      </trkpt>
      <trkpt lat="43.44931" lon="6.5893">
        <ele>215</ele>
        <time>2025-12-12T15:10:43Z</time>
      </trkpt>
      <trkpt lat="43.44934" lon="6.5891">
        <ele>215</ele>
        <time>2025-12-12T15:11:11Z</time>
      </trkpt>
      <trkpt lat="43.44935" lon="6.58902">
        <ele>216</ele>
        <time>2025-12-12T15:11:27Z</time>
      </trkpt>
      <trkpt lat="43.44938" lon="6.58893">
        <ele>216</ele>
        <time>2025-12-12T15:11:43Z</time>
      </trkpt>
      <trkpt lat="43.44934" lon="6.58881">
        <ele>215</ele>
        <time>2025-12-12T15:12:05Z</time>
      </trkpt>
      <trkpt lat="43.44923" lon="6.58872">
        <ele>220</ele>
        <time>2025-12-12T15:12:35Z</time>
      </trkpt>
      <trkpt lat="43.44917" lon="6.5887">
        <ele>220</ele>
        <time>2025-12-12T15:12:47Z</time>
      </trkpt>
      <trkpt lat="43.44912" lon="6.58868">
        <ele>219</ele>
        <time>2025-12-12T15:12:55Z</time>
      </trkpt>
      <trkpt lat="43.44907" lon="6.58868">
        <ele>218</ele>
        <time>2025-12-12T15:13:05Z</time>
      </trkpt>
      <trkpt lat="43.44903" lon="6.58867">
        <ele>218</ele>
        <time>2025-12-12T15:13:25Z</time>
      </trkpt>
      <trkpt lat="43.44898" lon="6.58864">
        <ele>219</ele>
        <time>2025-12-12T15:13:41Z</time>
      </trkpt>
      <trkpt lat="43.44888" lon="6.58857">
        <ele>222</ele>
        <time>2025-12-12T15:13:55Z</time>
      </trkpt>
      <trkpt lat="43.44882" lon="6.58856">
        <ele>225</ele>
        <time>2025-12-12T15:14:05Z</time>
      </trkpt>
      <trkpt lat="43.44872" lon="6.58835">
        <ele>227</ele>
        <time>2025-12-12T15:14:43Z</time>
      </trkpt>
      <trkpt lat="43.44871" lon="6.58828">
        <ele>228</ele>
        <time>2025-12-12T15:15:01Z</time>
      </trkpt>
      <trkpt lat="43.44866" lon="6.58823">
        <ele>230</ele>
        <time>2025-12-12T15:15:11Z</time>
      </trkpt>
      <trkpt lat="43.44862" lon="6.58816">
        <ele>231</ele>
        <time>2025-12-12T15:15:31Z</time>
      </trkpt>
      <trkpt lat="43.44861" lon="6.58806">
        <ele>232</ele>
        <time>2025-12-12T15:16:25Z</time>
      </trkpt>
      <trkpt lat="43.44862" lon="6.58788">
        <ele>235</ele>
        <time>2025-12-12T15:17:01Z</time>
      </trkpt>
      <trkpt lat="43.4487" lon="6.58769">
        <ele>244</ele>
        <time>2025-12-12T15:17:25Z</time>
      </trkpt>
      <trkpt lat="43.44873" lon="6.58758">
        <ele>248</ele>
        <time>2025-12-12T15:17:43Z</time>
      </trkpt>
      <trkpt lat="43.4487" lon="6.58752">
        <ele>250</ele>
        <time>2025-12-12T15:17:55Z</time>
      </trkpt>
      <trkpt lat="43.4488" lon="6.58712">
        <ele>249</ele>
        <time>2025-12-12T15:18:29Z</time>
      </trkpt>
      <trkpt lat="43.44882" lon="6.58706">
        <ele>252</ele>
        <time>2025-12-12T15:18:37Z</time>
      </trkpt>
      <trkpt lat="43.44871" lon="6.58695">
        <ele>253</ele>
        <time>2025-12-12T15:20:17Z</time>
      </trkpt>
      <trkpt lat="43.44842" lon="6.58696">
        <ele>249</ele>
        <time>2025-12-12T15:20:41Z</time>
      </trkpt>
      <trkpt lat="43.4483" lon="6.58695">
        <ele>249</ele>
        <time>2025-12-12T15:20:49Z</time>
      </trkpt>
      <trkpt lat="43.4482" lon="6.58681">
        <ele>249</ele>
        <time>2025-12-12T15:21:03Z</time>
      </trkpt>
      <trkpt lat="43.44813" lon="6.58666">
        <ele>247</ele>
        <time>2025-12-12T15:21:17Z</time>
      </trkpt>
      <trkpt lat="43.44802" lon="6.58655">
        <ele>247</ele>
        <time>2025-12-12T15:21:33Z</time>
      </trkpt>
      <trkpt lat="43.44798" lon="6.58642">
        <ele>248</ele>
        <time>2025-12-12T15:21:41Z</time>
      </trkpt>
      <trkpt lat="43.44784" lon="6.58642">
        <ele>249</ele>
        <time>2025-12-12T15:21:51Z</time>
      </trkpt>
      <trkpt lat="43.44774" lon="6.5865">
        <ele>251</ele>
        <time>2025-12-12T15:22:01Z</time>
      </trkpt>
      <trkpt lat="43.44749" lon="6.58669">
        <ele>255</ele>
        <time>2025-12-12T15:22:39Z</time>
      </trkpt>
      <trkpt lat="43.44729" lon="6.58687">
        <ele>256</ele>
        <time>2025-12-12T15:23:01Z</time>
      </trkpt>
      <trkpt lat="43.44718" lon="6.58692">
        <ele>257</ele>
        <time>2025-12-12T15:23:11Z</time>
      </trkpt>
      <trkpt lat="43.44711" lon="6.58703">
        <ele>257</ele>
        <time>2025-12-12T15:23:23Z</time>
      </trkpt>
      <trkpt lat="43.447" lon="6.58711">
        <ele>258</ele>
        <time>2025-12-12T15:23:35Z</time>
      </trkpt>
      <trkpt lat="43.44688" lon="6.58718">
        <ele>258</ele>
        <time>2025-12-12T15:23:47Z</time>
      </trkpt>
      <trkpt lat="43.44677" lon="6.58718">
        <ele>258</ele>
        <time>2025-12-12T15:24:01Z</time>
      </trkpt>
      <trkpt lat="43.44652" lon="6.587">
        <ele>261</ele>
        <time>2025-12-12T15:24:33Z</time>
      </trkpt>
      <trkpt lat="43.44622" lon="6.5869">
        <ele>260</ele>
        <time>2025-12-12T15:25:09Z</time>
      </trkpt>
      <trkpt lat="43.44588" lon="6.58685">
        <ele>259</ele>
        <time>2025-12-12T15:25:41Z</time>
      </trkpt>
      <trkpt lat="43.44549" lon="6.58673">
        <ele>261</ele>
        <time>2025-12-12T15:26:17Z</time>
      </trkpt>
      <trkpt lat="43.44515" lon="6.5866">
        <ele>259</ele>
        <time>2025-12-12T15:26:53Z</time>
      </trkpt>
      <trkpt lat="43.44496" lon="6.58649">
        <ele>259</ele>
        <time>2025-12-12T15:27:15Z</time>
      </trkpt>
      <trkpt lat="43.44501" lon="6.58648">
        <ele>259</ele>
        <time>2025-12-12T15:27:23Z</time>
      </trkpt>
      <trkpt lat="43.44504" lon="6.58654">
        <ele>259</ele>
        <time>2025-12-12T15:27:31Z</time>
      </trkpt>
      <trkpt lat="43.44507" lon="6.58663">
        <ele>259</ele>
        <time>2025-12-12T15:27:43Z</time>
      </trkpt>
      <trkpt lat="43.44501" lon="6.58647">
        <ele>259</ele>
        <time>2025-12-12T15:28:19Z</time>
      </trkpt>
      <trkpt lat="43.44504" lon="6.58628">
        <ele>258</ele>
        <time>2025-12-12T15:28:35Z</time>
      </trkpt>
      <trkpt lat="43.44526" lon="6.58568">
        <ele>258</ele>
        <time>2025-12-12T15:29:13Z</time>
      </trkpt>
      <trkpt lat="43.44543" lon="6.5854">
        <ele>257</ele>
        <time>2025-12-12T15:29:49Z</time>
      </trkpt>
      <trkpt lat="43.44547" lon="6.58529">
        <ele>256</ele>
        <time>2025-12-12T15:30:01Z</time>
      </trkpt>
      <trkpt lat="43.44553" lon="6.58511">
        <ele>256</ele>
        <time>2025-12-12T15:30:19Z</time>
      </trkpt>
      <trkpt lat="43.44553" lon="6.58502">
        <ele>253</ele>
        <time>2025-12-12T15:30:33Z</time>
      </trkpt>
      <trkpt lat="43.44553" lon="6.58481">
        <ele>248</ele>
        <time>2025-12-12T15:30:57Z</time>
      </trkpt>
      <trkpt lat="43.4455" lon="6.58464">
        <ele>242</ele>
        <time>2025-12-12T15:31:11Z</time>
      </trkpt>
      <trkpt lat="43.44546" lon="6.58457">
        <ele>240</ele>
        <time>2025-12-12T15:31:21Z</time>
      </trkpt>
      <trkpt lat="43.44546" lon="6.58442">
        <ele>237</ele>
        <time>2025-12-12T15:31:39Z</time>
      </trkpt>
      <trkpt lat="43.44551" lon="6.58405">
        <ele>233</ele>
        <time>2025-12-12T15:32:19Z</time>
      </trkpt>
      <trkpt lat="43.44553" lon="6.58396">
        <ele>232</ele>
        <time>2025-12-12T15:32:27Z</time>
      </trkpt>
      <trkpt lat="43.44555" lon="6.58378">
        <ele>227</ele>
        <time>2025-12-12T15:32:41Z</time>
      </trkpt>
      <trkpt lat="43.44558" lon="6.58362">
        <ele>225</ele>
        <time>2025-12-12T15:32:53Z</time>
      </trkpt>
      <trkpt lat="43.44563" lon="6.5835">
        <ele>222</ele>
        <time>2025-12-12T15:33:33Z</time>
      </trkpt>
      <trkpt lat="43.44573" lon="6.58354">
        <ele>218</ele>
        <time>2025-12-12T15:33:57Z</time>
      </trkpt>
      <trkpt lat="43.44578" lon="6.58355">
        <ele>218</ele>
        <time>2025-12-12T15:34:05Z</time>
      </trkpt>
      <trkpt lat="43.44584" lon="6.58352">
        <ele>218</ele>
        <time>2025-12-12T15:34:13Z</time>
      </trkpt>
      <trkpt lat="43.44588" lon="6.58336">
        <ele>217</ele>
        <time>2025-12-12T15:34:25Z</time>
      </trkpt>
      <trkpt lat="43.44598" lon="6.58324">
        <ele>216</ele>
        <time>2025-12-12T15:34:39Z</time>
      </trkpt>
      <trkpt lat="43.44605" lon="6.58306">
        <ele>212</ele>
        <time>2025-12-12T15:34:53Z</time>
      </trkpt>
      <trkpt lat="43.44603" lon="6.58273">
        <ele>212</ele>
        <time>2025-12-12T15:35:17Z</time>
      </trkpt>
      <trkpt lat="43.44611" lon="6.58258">
        <ele>212</ele>
        <time>2025-12-12T15:35:33Z</time>
      </trkpt>
      <trkpt lat="43.44623" lon="6.58228">
        <ele>207</ele>
        <time>2025-12-12T15:36:13Z</time>
      </trkpt>
      <trkpt lat="43.44624" lon="6.58212">
        <ele>208</ele>
        <time>2025-12-12T15:36:33Z</time>
      </trkpt>
      <trkpt lat="43.44627" lon="6.58193">
        <ele>208</ele>
        <time>2025-12-12T15:36:55Z</time>
      </trkpt>
      <trkpt lat="43.44629" lon="6.58174">
        <ele>202</ele>
        <time>2025-12-12T15:37:11Z</time>
      </trkpt>
      <trkpt lat="43.44634" lon="6.58155">
        <ele>196</ele>
        <time>2025-12-12T15:37:27Z</time>
      </trkpt>
      <trkpt lat="43.44634" lon="6.5814">
        <ele>194</ele>
        <time>2025-12-12T15:37:39Z</time>
      </trkpt>
      <trkpt lat="43.44626" lon="6.58124">
        <ele>193</ele>
        <time>2025-12-12T15:37:51Z</time>
      </trkpt>
      <trkpt lat="43.44622" lon="6.58107">
        <ele>195</ele>
        <time>2025-12-12T15:38:03Z</time>
      </trkpt>
      <trkpt lat="43.44622" lon="6.5809">
        <ele>196</ele>
        <time>2025-12-12T15:38:17Z</time>
      </trkpt>
      <trkpt lat="43.44626" lon="6.58068">
        <ele>193</ele>
        <time>2025-12-12T15:38:31Z</time>
      </trkpt>
      <trkpt lat="43.44629" lon="6.58049">
        <ele>191</ele>
        <time>2025-12-12T15:38:45Z</time>
      </trkpt>
      <trkpt lat="43.44624" lon="6.5804">
        <ele>189</ele>
        <time>2025-12-12T15:39:01Z</time>
      </trkpt>
      <trkpt lat="43.44621" lon="6.58015">
        <ele>184</ele>
        <time>2025-12-12T15:39:19Z</time>
      </trkpt>
      <trkpt lat="43.4462" lon="6.57996">
        <ele>182</ele>
        <time>2025-12-12T15:39:39Z</time>
      </trkpt>
      <trkpt lat="43.44624" lon="6.57993">
        <ele>181</ele>
        <time>2025-12-12T15:39:45Z</time>
      </trkpt>
      <trkpt lat="43.4461" lon="6.5799">
        <ele>180</ele>
        <time>2025-12-12T15:40:17Z</time>
      </trkpt>
      <trkpt lat="43.44615" lon="6.57991">
        <ele>180</ele>
        <time>2025-12-12T15:41:21Z</time>
      </trkpt>
      <trkpt lat="43.44621" lon="6.57979">
        <ele>182</ele>
        <time>2025-12-12T15:41:47Z</time>
      </trkpt>
      <trkpt lat="43.44625" lon="6.57976">
        <ele>183</ele>
        <time>2025-12-12T15:41:57Z</time>
      </trkpt>
      <trkpt lat="43.44629" lon="6.57972">
        <ele>183</ele>
        <time>2025-12-12T15:42:23Z</time>
      </trkpt>
      <trkpt lat="43.4463" lon="6.57965">
        <ele>182</ele>
        <time>2025-12-12T15:42:43Z</time>
      </trkpt>
      <trkpt lat="43.4463" lon="6.57956">
        <ele>181</ele>
        <time>2025-12-12T15:42:53Z</time>
      </trkpt>
      <trkpt lat="43.44628" lon="6.57947">
        <ele>181</ele>
        <time>2025-12-12T15:43:11Z</time>
      </trkpt>
      <trkpt lat="43.44624" lon="6.57927">
        <ele>180</ele>
        <time>2025-12-12T15:43:29Z</time>
      </trkpt>
      <trkpt lat="43.44628" lon="6.57907">
        <ele>174</ele>
        <time>2025-12-12T15:43:43Z</time>
      </trkpt>
      <trkpt lat="43.44631" lon="6.57873">
        <ele>175</ele>
        <time>2025-12-12T15:44:11Z</time>
      </trkpt>
      <trkpt lat="43.44634" lon="6.57853">
        <ele>175</ele>
        <time>2025-12-12T15:44:25Z</time>
      </trkpt>
      <trkpt lat="43.44658" lon="6.57827">
        <ele>171</ele>
        <time>2025-12-12T15:44:49Z</time>
      </trkpt>
      <trkpt lat="43.44669" lon="6.57818">
        <ele>170</ele>
        <time>2025-12-12T15:45:01Z</time>
      </trkpt>
      <trkpt lat="43.44678" lon="6.57808">
        <ele>170</ele>
        <time>2025-12-12T15:45:15Z</time>
      </trkpt>
      <trkpt lat="43.44688" lon="6.578">
        <ele>168</ele>
        <time>2025-12-12T15:45:25Z</time>
      </trkpt>
      <trkpt lat="43.44692" lon="6.57785">
        <ele>165</ele>
        <time>2025-12-12T15:45:39Z</time>
      </trkpt>
      <trkpt lat="43.44689" lon="6.57732">
        <ele>164</ele>
        <time>2025-12-12T15:46:15Z</time>
      </trkpt>
      <trkpt lat="43.44689" lon="6.57694">
        <ele>163</ele>
        <time>2025-12-12T15:46:45Z</time>
      </trkpt>
      <trkpt lat="43.44694" lon="6.57658">
        <ele>159</ele>
        <time>2025-12-12T15:47:11Z</time>
      </trkpt>
      <trkpt lat="43.447" lon="6.57645">
        <ele>153</ele>
        <time>2025-12-12T15:47:25Z</time>
      </trkpt>
      <trkpt lat="43.44709" lon="6.57633">
        <ele>152</ele>
        <time>2025-12-12T15:47:37Z</time>
      </trkpt>
      <trkpt lat="43.44713" lon="6.57618">
        <ele>151</ele>
        <time>2025-12-12T15:47:49Z</time>
      </trkpt>
      <trkpt lat="43.44717" lon="6.57581">
        <ele>153</ele>
        <time>2025-12-12T15:48:09Z</time>
      </trkpt>
      <trkpt lat="43.44714" lon="6.5756">
        <ele>154</ele>
        <time>2025-12-12T15:48:23Z</time>
      </trkpt>
      <trkpt lat="43.4471" lon="6.5754">
        <ele>152</ele>
        <time>2025-12-12T15:48:37Z</time>
      </trkpt>
      <trkpt lat="43.44702" lon="6.57526">
        <ele>148</ele>
        <time>2025-12-12T15:48:55Z</time>
      </trkpt>
      <trkpt lat="43.44697" lon="6.57512">
        <ele>144</ele>
        <time>2025-12-12T15:49:07Z</time>
      </trkpt>
      <trkpt lat="43.447" lon="6.57496">
        <ele>141</ele>
        <time>2025-12-12T15:49:23Z</time>
      </trkpt>
      <trkpt lat="43.4471" lon="6.57485">
        <ele>141</ele>
        <time>2025-12-12T15:49:35Z</time>
      </trkpt>
      <trkpt lat="43.44714" lon="6.57467">
        <ele>141</ele>
        <time>2025-12-12T15:49:49Z</time>
      </trkpt>
      <trkpt lat="43.44708" lon="6.57451">
        <ele>141</ele>
        <time>2025-12-12T15:49:59Z</time>
      </trkpt>
      <trkpt lat="43.4471" lon="6.57444">
        <ele>141</ele>
        <time>2025-12-12T15:50:05Z</time>
      </trkpt>
      <trkpt lat="43.44711" lon="6.5745">
        <ele>143</ele>
        <time>2025-12-12T15:50:33Z</time>
      </trkpt>
      <trkpt lat="43.44707" lon="6.5745">
        <ele>143</ele>
        <time>2025-12-12T15:50:59Z</time>
      </trkpt>
      <trkpt lat="43.44703" lon="6.57457">
        <ele>143</ele>
        <time>2025-12-12T15:51:07Z</time>
      </trkpt>
    </trkseg>
  </trk>
</gpx>